createdAt,value
2023-05-09T00:02:12.978Z,101146.53
2023-05-09T00:04:42.826Z,101144.16
2023-05-09T00:07:11.591Z,101137.81
2023-05-09T00:09:40.453Z,101143.00
2023-05-09T00:12:09.777Z,101140.63
2023-05-09T00:14:40.869Z,101141.31
2023-05-09T00:17:09.870Z,101146.38
2023-05-09T00:19:39.430Z,101147.25
2023-05-09T00:22:09.522Z,101136.94
2023-05-09T00:24:38.577Z,101142.03
2023-05-09T00:27:07.194Z,101143.88
2023-05-09T00:29:36.312Z,101132.47
2023-05-09T00:32:05.254Z,101125.53
2023-05-09T00:34:34.325Z,101134.13
2023-05-09T00:37:02.848Z,101135.13
2023-05-09T00:39:31.696Z,101138.50
2023-05-09T00:42:00.251Z,101137.63
2023-05-09T00:44:29.346Z,101131.44
2023-05-09T00:46:57.897Z,101134.81
2023-05-09T00:49:27.024Z,101133.16
2023-05-09T00:51:56.896Z,101128.50
2023-05-09T00:54:26.378Z,101127.63
2023-05-09T00:56:54.984Z,101128.63
2023-05-09T00:59:24.371Z,101117.91
2023-05-09T01:01:52.897Z,101114.81
2023-05-09T01:04:21.904Z,101120.59
2023-05-09T01:07:31.353Z,101117.91
2023-05-09T01:10:29.565Z,101111.19
2023-05-09T01:13:14.658Z,101111.72
2023-05-09T01:16:35.523Z,101117.91
2023-05-09T01:19:37.056Z,101112.44
2023-05-09T01:22:09.165Z,101110.03
2023-05-09T01:25:30.668Z,101104.13
2023-05-09T01:28:35.933Z,101106.78
2023-05-09T01:31:05.161Z,101104.13
2023-05-09T01:33:34.537Z,101110.03
2023-05-09T01:36:08.325Z,101116.53
2023-05-09T01:38:38.752Z,101118.19
2023-05-09T01:41:07.389Z,101121.75
2023-05-09T01:43:36.369Z,101115.53
2023-05-09T01:46:06.271Z,101115.84
2023-05-09T01:48:36.763Z,101109.47
2023-05-09T01:51:05.902Z,101116.22
2023-05-09T01:53:35.010Z,101121.75
2023-05-09T01:56:04.906Z,101109.19
2023-05-09T01:58:34.207Z,101110.47
2023-05-09T02:01:02.821Z,101109.78
2023-05-09T02:03:34.231Z,101112.47
2023-05-09T02:06:02.791Z,101107.09
2023-05-09T02:08:32.311Z,101110.06
2023-05-09T02:11:02.130Z,101112.59
2023-05-09T02:13:31.376Z,101100.75
2023-05-09T02:16:00.090Z,101106.09
2023-05-09T02:18:29.697Z,101100.75
2023-05-09T02:20:58.360Z,101096.38
2023-05-09T02:23:27.207Z,101088.19
2023-05-09T02:25:55.784Z,101088.34
2023-05-09T02:28:25.750Z,101079.63
2023-05-09T02:30:54.308Z,101092.00
2023-05-09T02:33:23.620Z,101092.84
2023-05-09T02:35:52.189Z,101097.91
2023-05-09T02:38:21.696Z,101093.84
2023-05-09T02:40:52.267Z,101093.72
2023-05-09T02:43:22.343Z,101101.56
2023-05-09T02:45:51.138Z,101093.72
2023-05-09T02:48:20.160Z,101094.84
2023-05-09T02:50:48.700Z,101096.53
2023-05-09T02:53:17.522Z,101098.38
2023-05-09T02:55:46.288Z,101090.34
2023-05-09T02:58:15.499Z,101094.00
2023-05-09T03:00:45.707Z,101086.28
2023-05-09T03:03:18.321Z,101094.69
2023-05-09T03:05:47.783Z,101082.72
2023-05-09T03:08:16.620Z,101085.97
2023-05-09T03:10:45.873Z,101090.34
2023-05-09T03:13:15.521Z,101087.81
2023-05-09T03:15:44.109Z,101088.63
2023-05-09T03:18:14.997Z,101079.78
2023-05-09T03:20:43.581Z,101081.75
2023-05-09T03:23:12.403Z,101075.56
2023-05-09T03:25:41.105Z,101081.91
2023-05-09T03:28:09.965Z,101087.09
2023-05-09T03:30:38.852Z,101080.06
2023-05-09T03:33:11.689Z,101076.81
2023-05-09T03:35:40.247Z,101083.75
2023-05-09T03:38:10.150Z,101085.41
2023-05-09T03:40:39.215Z,101093.31
2023-05-09T03:43:11.803Z,101086.09
2023-05-09T03:45:40.686Z,101086.97
2023-05-09T03:48:12.159Z,101093.16
2023-05-09T03:50:46.613Z,101083.59
2023-05-09T03:53:17.565Z,101095.97
2023-05-09T03:55:48.697Z,101095.00
2023-05-09T03:58:19.812Z,101095.41
2023-05-09T04:00:49.130Z,101095.41
2023-05-09T04:03:23.573Z,101096.25
2023-05-09T04:05:54.584Z,101098.09
2023-05-09T04:08:32.527Z,101106.13
2023-05-09T04:11:02.479Z,101108.81
2023-05-09T04:13:33.210Z,101093.19
2023-05-09T04:16:05.782Z,101099.94
2023-05-09T04:18:36.807Z,101088.44
2023-05-09T04:21:06.486Z,101090.41
2023-05-09T04:23:35.410Z,101104.50
2023-05-09T04:26:04.611Z,101095.19
2023-05-09T04:28:33.831Z,101099.00
2023-05-09T04:31:03.277Z,101094.47
2023-05-09T04:33:33.587Z,101095.19
2023-05-09T04:36:04.571Z,101089.25
2023-05-09T04:38:33.674Z,101093.22
2023-05-09T04:41:03.402Z,101095.75
2023-05-09T04:43:32.866Z,101091.38
2023-05-09T04:46:01.468Z,101091.22
2023-05-09T04:48:30.568Z,101086.75
2023-05-09T04:50:59.176Z,101089.97
2023-05-09T04:53:28.586Z,101096.88
2023-05-09T04:55:58.753Z,101098.00
2023-05-09T04:58:27.738Z,101099.72
2023-05-09T05:00:58.125Z,101096.03
2023-05-09T05:03:27.009Z,101096.72
2023-05-09T05:05:56.589Z,101093.50
2023-05-09T05:08:25.695Z,101087.41
2023-05-09T05:10:55.133Z,101103.94
2023-05-09T05:13:24.848Z,101104.06
2023-05-09T05:15:59.075Z,101109.84
2023-05-09T05:18:28.107Z,101108.69
2023-05-09T05:20:56.753Z,101108.84
2023-05-09T05:23:27.385Z,101114.31
2023-05-09T05:25:57.279Z,101116.03
2023-05-09T05:28:26.954Z,101119.25
2023-05-09T05:30:55.694Z,101104.63
2023-05-09T05:33:24.846Z,101116.88
2023-05-09T05:35:54.193Z,101107.88
2023-05-09T05:38:24.085Z,101115.06
2023-05-09T05:40:56.408Z,101116.72
2023-05-09T05:43:26.728Z,101123.63
2023-05-09T05:45:56.011Z,101118.72
2023-05-09T05:48:26.934Z,101128.97
2023-05-09T05:50:56.698Z,101125.31
2023-05-09T05:53:30.817Z,101126.16
2023-05-09T05:56:01.277Z,101119.41
2023-05-09T05:58:31.025Z,101125.31
2023-05-09T06:00:59.887Z,101125.31
2023-05-09T06:03:28.829Z,101115.44
2023-05-09T06:06:01.801Z,101128.25
2023-05-09T06:08:31.122Z,101122.19
2023-05-09T06:11:01.877Z,101129.38
2023-05-09T06:13:30.842Z,101117.28
2023-05-09T06:16:18.725Z,101108.41
2023-05-09T06:18:51.506Z,101110.69
2023-05-09T06:21:23.116Z,101126.84
2023-05-09T06:24:07.724Z,101123.63
2023-05-09T06:26:38.957Z,101113.06
2023-05-09T06:29:08.140Z,101118.97
2023-05-09T06:31:39.273Z,101120.53
2023-05-09T06:34:08.714Z,101122.34
2023-05-09T06:36:37.309Z,101116.44
2023-05-09T06:39:06.230Z,101114.59
2023-05-09T06:41:34.796Z,101129.53
2023-05-09T06:44:03.642Z,101125.31
2023-05-09T06:46:32.261Z,101122.63
2023-05-09T06:49:02.969Z,101115.16
2023-05-09T06:51:31.685Z,101106.97
2023-05-09T06:54:00.649Z,101109.50
2023-05-09T06:56:29.185Z,101109.50
2023-05-09T06:58:58.195Z,101112.75
2023-05-09T07:01:27.190Z,101110.06
2023-05-09T07:03:56.287Z,101100.03
2023-05-09T07:06:24.837Z,101103.56
2023-05-09T07:08:53.690Z,101099.75
2023-05-09T07:11:22.542Z,101097.38
2023-05-09T07:13:51.428Z,101098.06
2023-05-09T07:16:23.127Z,101095.38
2023-05-09T07:18:52.116Z,101088.34
2023-05-09T07:21:20.740Z,101086.53
2023-05-09T07:23:49.701Z,101092.72
2023-05-09T07:26:18.271Z,101089.19
2023-05-09T07:28:47.180Z,101086.38
2023-05-09T07:31:15.814Z,101083.69
2023-05-09T07:33:44.714Z,101084.69
2023-05-09T07:36:15.287Z,101083.69
2023-05-09T07:38:44.179Z,101079.31
2023-05-09T07:41:12.773Z,101078.03
2023-05-09T07:43:41.885Z,101075.06
2023-05-09T07:46:10.543Z,101077.06
2023-05-09T07:48:40.026Z,101061.59
2023-05-09T07:51:08.626Z,101074.25
2023-05-09T07:53:37.760Z,101075.91
2023-05-09T07:56:09.701Z,101071.38
2023-05-09T07:58:38.630Z,101069.16
2023-05-09T08:01:07.145Z,101074.75
2023-05-09T08:03:36.192Z,101072.06
2023-05-09T08:06:04.798Z,101078.44
2023-05-09T08:08:33.777Z,101071.38
2023-05-09T08:11:02.386Z,101076.47
2023-05-09T08:13:31.213Z,101078.31
2023-05-09T08:16:00.948Z,101079.00
2023-05-09T08:18:29.903Z,101071.94
2023-05-09T08:21:00.020Z,101066.91
2023-05-09T08:23:30.687Z,101074.75
2023-05-09T08:25:59.402Z,101066.03
2023-05-09T08:28:31.053Z,101067.44
2023-05-09T08:30:59.587Z,101062.94
2023-05-09T08:33:28.504Z,101065.16
2023-05-09T08:35:57.058Z,101061.50
2023-05-09T08:38:26.233Z,101066.84
2023-05-09T08:41:01.171Z,101052.44
2023-05-09T08:43:30.100Z,101047.78
2023-05-09T08:46:08.811Z,101043.97
2023-05-09T08:48:40.709Z,101045.78
2023-05-09T08:51:10.576Z,101050.19
2023-05-09T08:53:39.375Z,101046.50
2023-05-09T08:56:08.319Z,101049.84
2023-05-09T08:58:37.108Z,101044.69
2023-05-09T09:01:07.206Z,101046.19
2023-05-09T09:03:36.928Z,101046.06
2023-05-09T09:06:07.142Z,101033.50
2023-05-09T09:08:36.199Z,101040.56
2023-05-09T09:11:05.021Z,101035.19
2023-05-09T09:13:35.198Z,101038.56
2023-05-09T09:16:04.083Z,101026.16
2023-05-09T09:18:33.396Z,101024.47
2023-05-09T09:21:07.868Z,101026.28
2023-05-09T09:23:37.636Z,101026.16
2023-05-09T09:26:06.083Z,101023.47
2023-05-09T09:28:35.246Z,101020.09
2023-05-09T09:31:03.970Z,101025.31
2023-05-09T09:33:36.304Z,101020.78
2023-05-09T09:36:04.955Z,101021.63
2023-05-09T09:38:40.810Z,101017.66
2023-05-09T09:41:11.302Z,101023.88
2023-05-09T09:43:40.135Z,101015.84
2023-05-09T09:46:10.222Z,101008.50
2023-05-09T09:48:39.804Z,101016.38
2023-05-09T09:51:11.620Z,101002.44
2023-05-09T09:53:44.028Z,101000.75
2023-05-09T09:56:12.480Z,101012.16
2023-05-09T09:58:41.485Z,101009.63
2023-05-09T10:01:14.269Z,101014.13
2023-05-09T10:03:45.427Z,101009.31
2023-05-09T10:06:15.402Z,100997.09
2023-05-09T10:08:47.617Z,100995.94
2023-05-09T10:11:16.547Z,100994.22
2023-05-09T10:13:45.489Z,100986.03
2023-05-09T10:16:14.126Z,100984.06
2023-05-09T10:18:43.322Z,100993.84
2023-05-09T10:21:14.158Z,100993.03
2023-05-09T10:23:47.080Z,100985.31
2023-05-09T10:26:27.700Z,100980.66
2023-05-09T10:28:57.692Z,100975.78
2023-05-09T10:31:27.598Z,100974.91
2023-05-09T10:33:56.595Z,100993.59
2023-05-09T10:36:25.237Z,100989.53
2023-05-09T10:38:55.237Z,100978.81
2023-05-09T10:41:24.286Z,100970.03
2023-05-09T10:43:57.019Z,100984.97
2023-05-09T10:46:27.469Z,100976.44
2023-05-09T10:48:56.754Z,100984.75
2023-05-09T10:51:25.389Z,100980.03
2023-05-09T10:53:56.122Z,100988.03
2023-05-09T10:56:27.453Z,100976.53
2023-05-09T10:58:56.715Z,100966.44
2023-05-09T11:01:37.535Z,100964.81
2023-05-09T11:04:13.309Z,100955.19
2023-05-09T11:06:55.864Z,100945.03
2023-05-09T11:09:33.613Z,100951.22
2023-05-09T11:12:05.255Z,100940.88
2023-05-09T11:14:41.573Z,100942.03
2023-05-09T11:17:22.956Z,100944.25
2023-05-09T11:19:52.144Z,100940.06
2023-05-09T11:22:22.506Z,100931.31
2023-05-09T11:24:54.191Z,100942.88
2023-05-09T11:27:24.285Z,100933.97
2023-05-09T11:29:57.056Z,100931.41
2023-05-09T11:32:31.812Z,100922.75
2023-05-09T11:35:30.418Z,100923.13
2023-05-09T11:38:04.185Z,100922.75
2023-05-09T11:40:34.344Z,100914.72
2023-05-09T11:43:03.163Z,100920.97
2023-05-09T11:45:33.421Z,100913.72
2023-05-09T11:48:03.505Z,100899.84
2023-05-09T11:50:32.956Z,100902.38
2023-05-09T11:53:01.669Z,100910.63
2023-05-09T11:55:31.748Z,100902.78
2023-05-09T11:58:00.565Z,100907.03
2023-05-09T12:00:29.578Z,100900.59
2023-05-09T12:02:58.239Z,100900.00
2023-05-09T12:05:27.322Z,100896.81
2023-05-09T12:07:55.987Z,100895.09
2023-05-09T12:10:24.795Z,100878.81
2023-05-09T12:12:55.765Z,100877.81
2023-05-09T12:15:25.728Z,100882.09
2023-05-09T12:18:08.164Z,100875.84
2023-05-09T12:20:52.362Z,100872.00
2023-05-09T12:23:20.896Z,100863.03
2023-05-09T12:25:56.836Z,100872.84
2023-05-09T12:28:25.930Z,100858.38
2023-05-09T12:30:54.862Z,100854.69
2023-05-09T12:33:23.371Z,100864.34
2023-05-09T12:36:06.690Z,100858.88
2023-05-09T12:38:35.468Z,100850.25
2023-05-09T12:41:10.704Z,100845.94
2023-05-09T12:43:50.209Z,100847.88
2023-05-09T12:46:20.266Z,100848.56
2023-05-09T12:48:49.632Z,100834.16
2023-05-09T12:51:21.967Z,100818.09
2023-05-09T12:53:50.697Z,100821.44
2023-05-09T12:56:20.641Z,100830.19
2023-05-09T12:58:53.370Z,100818.44
2023-05-09T13:01:25.230Z,100813.94
2023-05-09T13:04:04.566Z,100808.25
2023-05-09T13:06:35.991Z,100804.41
2023-05-09T13:09:08.232Z,100808.25
2023-05-09T13:11:38.086Z,100809.25
2023-05-09T13:14:06.639Z,100805.72
2023-05-09T13:16:35.827Z,100807.72
2023-05-09T13:19:05.680Z,100800.69
2023-05-09T13:21:35.625Z,100790.66
2023-05-09T13:24:07.898Z,100799.53
2023-05-09T13:26:36.778Z,100792.00
2023-05-09T13:29:05.310Z,100793.38
2023-05-09T13:31:34.330Z,100784.97
2023-05-09T13:34:02.876Z,100784.97
2023-05-09T13:36:33.065Z,100783.28
2023-05-09T13:39:01.592Z,100781.59
2023-05-09T13:41:36.343Z,100771.06
2023-05-09T13:44:06.622Z,100763.84
2023-05-09T13:46:35.616Z,100757.66
2023-05-09T13:49:04.573Z,100747.78
2023-05-09T13:51:33.807Z,100755.81
2023-05-09T13:54:02.458Z,100753.13
2023-05-09T13:56:31.319Z,100762.00
2023-05-09T13:58:59.913Z,100754.97
2023-05-09T14:01:28.840Z,100756.78
2023-05-09T14:03:57.439Z,100755.66
2023-05-09T14:06:26.540Z,100753.81
2023-05-09T14:08:55.892Z,100753.13
2023-05-09T14:11:25.735Z,100743.38
2023-05-09T14:13:54.291Z,100738.03
2023-05-09T14:16:23.497Z,100732.00
2023-05-09T14:18:52.014Z,100722.13
2023-05-09T14:21:20.991Z,100722.13
2023-05-09T14:23:49.913Z,100716.78
2023-05-09T14:26:19.405Z,100713.91
2023-05-09T14:28:48.365Z,100721.78
2023-05-09T14:31:18.276Z,100707.41
2023-05-09T14:33:46.919Z,100717.78
2023-05-09T14:36:16.014Z,100706.25
2023-05-09T14:38:47.186Z,100707.91
2023-05-09T14:41:16.201Z,100704.53
2023-05-09T14:43:44.798Z,100715.78
2023-05-09T14:46:13.721Z,100722.84
2023-05-09T14:48:42.209Z,100719.34
2023-05-09T14:51:12.215Z,100723.84
2023-05-09T14:53:42.094Z,100714.28
2023-05-09T14:56:12.483Z,100731.34
2023-05-09T14:58:41.059Z,100717.25
2023-05-09T15:01:10.774Z,100717.25
2023-05-09T15:03:39.577Z,100712.94
2023-05-09T15:06:08.626Z,100719.59
2023-05-09T15:08:37.584Z,100709.19
2023-05-09T15:11:08.093Z,100713.13
2023-05-09T15:13:37.773Z,100707.00
2023-05-09T15:16:06.821Z,100701.31
2023-05-09T15:18:35.598Z,100697.78
2023-05-09T15:21:04.805Z,100701.84
2023-05-09T15:23:33.812Z,100693.34
2023-05-09T15:26:03.015Z,100694.31
2023-05-09T15:28:31.614Z,100698.50
2023-05-09T15:31:00.828Z,100703.03
2023-05-09T15:33:29.553Z,100701.84
2023-05-09T15:36:00.203Z,100705.19
2023-05-09T15:38:28.913Z,100697.00
2023-05-09T15:40:57.810Z,100692.47
2023-05-09T15:43:26.300Z,100693.16
2023-05-09T15:45:55.256Z,100691.31
2023-05-09T15:48:24.011Z,100684.13
2023-05-09T15:50:53.885Z,100685.09
2023-05-09T15:53:23.699Z,100686.78
2023-05-09T15:55:52.574Z,100681.75
2023-05-09T15:58:21.121Z,100682.75
2023-05-09T16:00:50.050Z,100684.13
2023-05-09T16:03:19.368Z,100693.81
2023-05-09T16:05:48.412Z,100694.50
2023-05-09T16:08:17.271Z,100691.16
2023-05-09T16:10:49.222Z,100691.63
2023-05-09T16:13:18.042Z,100689.09
2023-05-09T16:15:48.431Z,100686.44
2023-05-09T16:18:17.028Z,100686.09
2023-05-09T16:20:45.945Z,100682.91
2023-05-09T16:23:14.482Z,100683.75
2023-05-09T16:25:45.154Z,100678.72
2023-05-09T16:28:13.732Z,100689.75
2023-05-09T16:30:43.740Z,100691.44
2023-05-09T16:33:13.186Z,100689.06
2023-05-09T16:35:42.082Z,100691.75
2023-05-09T16:38:10.794Z,100684.84
2023-05-09T16:40:39.952Z,100683.16
2023-05-09T16:43:08.645Z,100678.97
2023-05-09T16:45:38.831Z,100678.63
2023-05-09T16:48:07.591Z,100669.22
2023-05-09T16:50:38.581Z,100677.94
2023-05-09T16:53:07.123Z,100663.03
2023-05-09T16:55:36.087Z,100670.94
2023-05-09T16:58:04.766Z,100664.91
2023-05-09T17:00:34.823Z,100663.88
2023-05-09T17:03:03.547Z,100664.91
2023-05-09T17:05:32.522Z,100661.69
2023-05-09T17:08:01.189Z,100664.69
2023-05-09T17:10:30.076Z,100668.38
2023-05-09T17:12:58.583Z,100666.84
2023-05-09T17:15:28.824Z,100663.16
2023-05-09T17:17:57.533Z,100670.91
2023-05-09T17:20:27.253Z,100672.72
2023-05-09T17:22:56.521Z,100668.53
2023-05-09T17:25:25.371Z,100679.56
2023-05-09T17:27:53.923Z,100677.72
2023-05-09T17:30:23.394Z,100669.16
2023-05-09T17:32:52.386Z,100665.50
2023-05-09T17:35:22.736Z,100665.81
2023-05-09T17:37:51.560Z,100667.13
2023-05-09T17:40:21.824Z,100666.97
2023-05-09T17:42:50.410Z,100657.09
2023-05-09T17:45:19.505Z,100654.56
2023-05-09T17:47:48.096Z,100653.72
2023-05-09T17:50:17.700Z,100650.03
2023-05-09T17:52:46.482Z,100640.66
2023-05-09T17:55:15.608Z,100652.91
2023-05-09T17:57:44.098Z,100644.19
2023-05-09T18:00:14.722Z,100647.69
2023-05-09T18:02:43.905Z,100653.72
2023-05-09T18:05:13.830Z,100646.69
2023-05-09T18:07:42.330Z,100640.34
2023-05-09T18:10:11.917Z,100651.22
2023-05-09T18:12:40.498Z,100659.38
2023-05-09T18:15:24.315Z,100662.31
2023-05-09T18:17:54.923Z,100658.38
2023-05-09T18:20:23.563Z,100662.19
2023-05-09T18:22:53.954Z,100656.38
2023-05-09T18:25:22.617Z,100654.66
2023-05-09T18:27:51.693Z,100656.66
2023-05-09T18:30:22.268Z,100658.53
2023-05-09T18:32:51.325Z,100660.03
2023-05-09T18:35:20.111Z,100662.03
2023-05-09T18:37:49.621Z,100653.94
2023-05-09T18:40:18.461Z,100656.97
2023-05-09T18:42:47.549Z,100661.50
2023-05-09T18:45:16.231Z,100662.66
2023-05-09T18:47:46.167Z,100656.47
2023-05-09T18:50:15.861Z,100655.63
2023-05-09T18:52:46.262Z,100655.94
2023-05-09T18:55:15.094Z,100655.94
2023-05-09T18:57:43.762Z,100655.25
2023-05-09T19:00:13.160Z,100662.13
2023-05-09T19:02:42.348Z,100657.41
2023-05-09T19:05:11.182Z,100663.59
2023-05-09T19:07:40.203Z,100657.06
2023-05-09T19:10:08.988Z,100658.09
2023-05-09T19:12:37.894Z,100655.25
2023-05-09T19:15:06.931Z,100660.03
2023-05-09T19:17:36.820Z,100661.69
2023-05-09T19:20:06.297Z,100667.88
2023-05-09T19:22:36.645Z,100673.56
2023-05-09T19:25:05.500Z,100671.53
2023-05-09T19:27:34.101Z,100663.63
2023-05-09T19:30:04.603Z,100666.63
2023-05-09T19:32:33.216Z,100674.19
2023-05-09T19:35:01.581Z,100670.84
2023-05-09T19:37:30.742Z,100669.97
2023-05-09T19:39:59.101Z,100668.66
2023-05-09T19:42:27.722Z,100676.00
2023-05-09T19:44:55.983Z,100681.91
2023-05-09T19:47:26.041Z,100685.41
2023-05-09T19:49:54.905Z,100679.38
2023-05-09T19:52:23.603Z,100680.31
2023-05-09T19:54:52.417Z,100681.22
2023-05-09T19:57:21.951Z,100684.19
2023-05-09T19:59:50.293Z,100682.97
2023-05-09T20:02:20.033Z,100685.50
2023-05-09T20:04:50.241Z,100690.56
2023-05-09T20:07:19.031Z,100690.31
2023-05-09T20:09:47.327Z,100670.06
2023-05-09T20:12:17.167Z,100681.84
2023-05-09T20:14:45.459Z,100681.78
2023-05-09T20:17:14.084Z,100681.38
2023-05-09T20:19:42.372Z,100677.69
2023-05-09T20:22:11.432Z,100678.38
2023-05-09T20:24:39.719Z,100684.03
2023-05-09T20:27:10.493Z,100684.94
2023-05-09T20:29:39.913Z,100680.13
2023-05-09T20:32:08.689Z,100688.84
2023-05-09T20:34:37.444Z,100682.19
2023-05-09T20:37:07.030Z,100681.97
2023-05-09T20:39:35.367Z,100668.41
2023-05-09T20:42:06.151Z,100665.38
2023-05-09T20:44:34.392Z,100670.19
2023-05-09T20:47:03.146Z,100658.75
2023-05-09T20:49:31.864Z,100661.56
2023-05-09T20:52:01.357Z,100660.72
2023-05-09T20:54:31.344Z,100659.03
2023-05-09T20:57:00.373Z,100659.88
2023-05-09T20:59:29.523Z,100651.06
2023-05-09T21:01:58.557Z,100657.81
2023-05-09T21:04:26.860Z,100659.09
2023-05-09T21:06:56.928Z,100656.66
2023-05-09T21:09:25.795Z,100657.28
2023-05-09T21:11:54.526Z,100655.84
2023-05-09T21:14:23.373Z,100654.41
2023-05-09T21:16:55.119Z,100657.69
2023-05-09T21:19:24.083Z,100648.56
2023-05-09T21:21:53.084Z,100651.00
2023-05-09T21:24:21.916Z,100648.00
2023-05-09T21:26:51.942Z,100650.97
2023-05-09T21:29:20.581Z,100653.25
2023-05-09T21:31:49.410Z,100648.91
2023-05-09T21:34:18.882Z,100646.34
2023-05-09T21:36:47.657Z,100648.66
2023-05-09T21:39:16.182Z,100649.97
2023-05-09T21:41:45.772Z,100639.19
2023-05-09T21:44:15.252Z,100646.47
2023-05-09T21:46:46.952Z,100623.69
2023-05-09T21:49:18.527Z,100647.22
2023-05-09T21:51:47.520Z,100643.53
2023-05-09T21:54:16.180Z,100640.41
2023-05-09T21:56:45.065Z,100633.06
2023-05-09T21:59:14.056Z,100633.75
2023-05-09T22:01:45.708Z,100637.13
2023-05-09T22:04:15.100Z,100632.59
2023-05-09T22:06:44.089Z,100627.09
2023-05-09T22:09:12.728Z,100623.44
2023-05-09T22:11:41.623Z,100622.28
2023-05-09T22:14:10.539Z,100619.47
2023-05-09T22:16:39.354Z,100610.41
2023-05-09T22:19:08.681Z,100614.78
2023-05-09T22:21:37.501Z,100610.13
2023-05-09T22:24:08.072Z,100613.09
2023-05-09T22:26:36.932Z,100614.31
2023-05-09T22:29:07.032Z,100601.63
2023-05-09T22:31:36.069Z,100602.63
2023-05-09T22:34:04.887Z,100599.09
2023-05-09T22:36:33.715Z,100594.59
2023-05-09T22:39:02.227Z,100586.38
2023-05-09T22:41:30.994Z,100587.41
2023-05-09T22:43:59.576Z,100581.38
2023-05-09T22:46:28.397Z,100579.38
2023-05-09T22:48:56.977Z,100573.00
2023-05-09T22:51:25.875Z,100573.00
2023-05-09T22:53:54.419Z,100569.34
2023-05-09T22:56:23.241Z,100569.34
2023-05-09T22:58:51.720Z,100569.50
2023-05-09T23:01:20.601Z,100571.00
2023-05-09T23:03:49.245Z,100568.34
2023-05-09T23:06:18.111Z,100564.00
2023-05-09T23:08:46.683Z,100561.31
2023-05-09T23:11:15.515Z,100563.69
2023-05-09T23:13:44.055Z,100554.97
2023-05-09T23:16:12.978Z,100549.59
2023-05-09T23:18:41.531Z,100545.13
2023-05-09T23:21:11.491Z,100547.94
2023-05-09T23:23:39.982Z,100538.22
2023-05-09T23:26:10.313Z,100538.91
2023-05-09T23:28:38.919Z,100537.91
2023-05-09T23:31:07.794Z,100542.44
2023-05-09T23:33:36.464Z,100533.53
2023-05-09T23:36:05.545Z,100530.88
2023-05-09T23:38:34.054Z,100526.53
2023-05-09T23:41:02.919Z,100525.03
2023-05-09T23:43:31.432Z,100519.50
2023-05-09T23:46:00.258Z,100516.81
2023-05-09T23:48:28.846Z,100514.81
2023-05-09T23:50:57.715Z,100510.47
2023-05-09T23:53:26.498Z,100506.09
2023-05-09T23:55:55.361Z,100513.97
2023-05-09T23:58:23.948Z,100505.13
